Flight Track Log - Related Links

Times and Time Zones

All times are in EDT time to prevent confusion due to time zone crossing. See the FLG3729 flight status page for this flight to view local times or setup timezone preferences in your user account.

Time Position Orientation Groundspeed Altitude Reporting Facility
EDT Latitude Longitude Course Direction KTS MPH feet Rate Location/Type
Thu 05:59:04 AM 42.7694 -73.8061 283° West 168 193 1,200  Level Boston Center
Thu 05:59:28 AM 42.7861 -73.8150 339° North 158 182 1,900 1,976 Climbing Boston Center
Thu 06:00:29 AM 42.8250 -73.8528 325° Northwest 191 220 4,000 1,821 Climbing Boston Center
Thu 06:01:20 AM 42.8539 -73.8844 321° Northwest 221 254 5,300 2,865 Climbing Boston Center
Thu 06:02:00 AM 42.8209 -74.2458 281° West  Level FlightAware Approximate
Thu 06:02:20 AM 42.9217 -73.9542 323° Northwest 232 267 9,300  Level Boston Center
Thu 06:03:00 AM 42.8379 -74.3604 283° West  Level FlightAware Approximate
Thu 06:03:20 AM 42.9814 -74.0153 323° Northwest 255 293 11,300  Level Boston Center
Thu 06:04:00 AM 42.8569 -74.4744 283° West  Level FlightAware Approximate
Thu 06:04:20 AM 42.9964 -74.1233 281° West 261 300 12,700  Level Boston Center
Thu 06:05:20 AM 42.9953 -74.2086 269° West 278 320 14,300 2,050 Climbing Boston Center
Thu 06:06:20 AM 42.9947 -74.3619 270° West 310 357 16,800 2,350 Climbing Boston Center
Thu 06:07:20 AM 42.9992 -74.4700 273° West 310 357 19,000 2,050 Climbing Boston Center
Thu 06:08:20 AM 42.9972 -74.5833 269° West 310 357 20,900 1,650 Climbing Boston Center
Thu 06:09:20 AM 42.9992 -74.6969 271° West 310 357 22,300 1,200 Climbing Boston Center
Thu 06:10:20 AM 42.9967 -74.8161 268° West 310 357 23,300 1,000 Climbing Boston Center
Thu 06:11:20 AM 42.9983 -74.9383 271° West 310 357 24,300 1,000 Climbing Boston Center
Thu 06:12:20 AM 42.9975 -75.0606 270° West 315 362 25,300 900 Climbing Boston Center
Thu 06:13:20 AM 42.9967 -75.1853 270° West 320 368 26,100 800 Climbing Boston Center
Thu 06:14:20 AM 42.9956 -75.3131 269° West 330 380 26,900 650 Climbing Boston Center
Thu 06:15:20 AM 42.9922 -75.4436 268° West 340 391 27,400 500 Climbing Boston Center
Thu 06:16:20 AM 42.9947 -75.5856 271° West 345 397 27,900 300 Climbing Boston Center
Thu 06:17:20 AM 42.9928 -75.7247 269° West 351 404 28,000 29 Climbing Boston Center
Thu 06:19:44 AM 42.9900 -76.0442 269° West 359 413 28,000  Level Cleveland Center
Thu 06:20:44 AM 42.9892 -76.1778 270° West 359 413 28,000  Level Cleveland Center
Thu 06:21:44 AM 42.9858 -76.3142 268° West 359 413 28,000  Level Cleveland Center
Thu 06:22:44 AM 42.9844 -76.4506 269° West 359 413 28,000  Level Cleveland Center
Thu 06:23:44 AM 42.9811 -76.5869 268° West 364 419 28,000  Level Cleveland Center
Thu 06:24:44 AM 42.9792 -76.7178 269° West 364 419 28,000  Level Cleveland Center
Thu 06:25:44 AM 42.9772 -76.8456 269° West 369 425 28,000  Level Cleveland Center
Thu 06:26:44 AM 42.9753 -76.9819 269° West 364 419 28,000  Level Cleveland Center
Thu 06:27:44 AM 42.9711 -77.1183 268° West 364 419 28,000  Level Cleveland Center
Thu 06:28:44 AM 42.9689 -77.2547 269° West 364 419 28,000  Level Cleveland Center
Thu 06:29:44 AM 42.9664 -77.3939 269° West 364 419 28,000  Level Cleveland Center
Thu 06:30:44 AM 42.9639 -77.5303 269° West 364 419 28,000  Level Cleveland Center
Thu 06:31:44 AM 42.9592 -77.6697 267° West 364 419 28,000  Level Cleveland Center
Thu 06:32:44 AM 42.9564 -77.8058 268° West 369 425 28,000  Level Cleveland Center
Thu 06:33:44 AM 42.9533 -77.9450 268° West 369 425 28,000  Level Cleveland Center
Thu 06:34:44 AM 42.9481 -78.0814 267° West 369 425 28,000  Level Cleveland Center
Thu 06:35:44 AM 42.9447 -78.2206 268° West 369 425 28,000  Level Cleveland Center
Thu 06:36:44 AM 42.9392 -78.3597 267° West 369 425 28,000  Level Cleveland Center
Thu 06:37:44 AM 42.9353 -78.4989 268° West 369 425 28,000  Level Cleveland Center
Thu 06:38:44 AM 42.9294 -78.6381 267° West 369 425 28,000  Level Cleveland Center
Thu 06:39:44 AM 42.9108 -78.7775 260° West 369 425 28,000  Level Cleveland Center
Thu 06:40:44 AM 42.8900 -78.9197 259° West 369 425 28,000  Level Cleveland Center
Thu 06:41:44 AM 42.8733 -79.0619 261° West 375 432 28,000  Level Cleveland Center
Thu 06:42:44 AM 42.8503 -79.2097 258° West 386 444 28,000  Level Cleveland Center
Thu 06:43:44 AM 42.8267 -79.3547 258° West 392 451 28,000  Level Cleveland Center
Thu 06:44:44 AM 42.8075 -79.4994 260° West 392 451 28,000  Level Cleveland Center
Thu 06:45:44 AM 42.7856 -79.6411 258° West 392 451 28,000  Level Cleveland Center
Thu 06:46:44 AM 42.7639 -79.7858 259° West 392 451 28,000  Level Cleveland Center
Thu 06:47:44 AM 42.7503 -79.9328 263° West 392 451 28,000  Level Cleveland Center
Thu 06:48:44 AM 42.7406 -80.0828 265° West 400 460 28,000  Level Cleveland Center
Thu 06:49:44 AM 42.7369 -80.2300 268° West 395 455 28,000  Level Cleveland Center
Thu 06:50:44 AM 42.7289 -80.3769 266° West 395 455 28,000  Level Cleveland Center
Thu 06:51:44 AM 42.7250 -80.5267 268° West 402 463 28,000  Level Cleveland Center
Thu 06:52:44 AM 42.7164 -80.6736 265° West 402 463 28,000 -250 Level Cleveland Center
Thu 06:53:44 AM 42.7081 -80.8347 266° West 402 463 27,500 -850 Descending Cleveland Center
Thu 06:54:44 AM 42.6972 -80.9758 264° West 394 453 26,300 -1,200 Descending Cleveland Center
Thu 06:55:44 AM 42.6819 -81.1114 261° West 374 430 25,100 -1,200 Descending Cleveland Center
Thu 06:56:44 AM 42.6667 -81.2494 261° West 368 423 23,900 -1,250 Descending Cleveland Center
Thu 06:57:44 AM 42.6511 -81.3906 262° West 373 429 22,600 -1,300 Descending Cleveland Center
Thu 06:58:44 AM 42.6336 -81.5258 260° West 373 429 21,300 -1,300 Descending Cleveland Center
Thu 06:59:44 AM 42.6178 -81.6608 261° West 373 429 20,000 -1,200 Descending Cleveland Center
Thu 07:00:44 AM 42.6042 -81.7708 260° West 373 429 18,900 -1,300 Descending Cleveland Center
Thu 07:01:44 AM 42.5836 -81.9283 260° West 373 429 17,400 -1,400 Descending Cleveland Center
Thu 07:02:44 AM 42.5675 -82.0603 261° West 373 429 16,100 -1,250 Descending Cleveland Center
Thu 07:03:44 AM 42.5511 -82.1869 260° West 363 418 14,900 -1,294 Descending Cleveland Center
Thu 07:04:26 AM 42.5436 -82.2742 263° West 342 394 13,900 -1,300 Descending Cleveland Center
Thu 07:04:44 AM 42.5367 -82.3133 256° West 357 411 13,600 -1,286 Descending Cleveland Center
Thu 07:05:08 AM 42.5317 -82.3694 263° West 336 387 13,000 -1,200 Descending Cleveland Center
Thu 07:05:44 AM 42.5225 -82.4342 259° West 345 397 12,400 -885 Descending Cleveland Center
Thu 07:06:09 AM 42.5175 -82.4847 262° West 303 349 12,100 -400 Descending Cleveland Center
Thu 07:06:44 AM 42.5081 -82.5436 258° West 332 382 12,000 -295 Descending Cleveland Center
Thu 07:07:10 AM 42.4950 -82.5825 246° West 266 306 11,800 -900 Descending Cleveland Center
Thu 07:07:44 AM 42.4772 -82.6356 246° West 288 331 11,100 -1,279 Descending Cleveland Center
Thu 07:08:11 AM 42.4619 -82.6772 244° Southwest 271 312 10,500 -1,200 Descending Cleveland Center
Thu 07:08:44 AM 42.4444 -82.7272 245° Southwest 275 316 9,900 -1,180 Descending Cleveland Center
Thu 07:09:12 AM 42.4289 -82.7717 245° Southwest 276 318 9,300 -1,200 Descending Cleveland Center
Thu 07:09:44 AM 42.4133 -82.8217 247° West 275 316 8,700 -1,279 Descending Cleveland Center
Thu 07:10:13 AM 42.4103 -82.8750 266° West 281 323 8,000 -1,300 Descending Cleveland Center
Thu 07:10:44 AM 42.3989 -82.9253 253° West 280 322 7,400 -1,279 Descending Cleveland Center
Thu 07:11:14 AM 42.3936 -82.9814 263° West 280 322 6,700 -1,300 Descending Cleveland Center
Thu 07:11:44 AM 42.3864 -83.0261 258° West 280 322 6,100 -600 Descending Cleveland Center
Thu 07:12:14 AM 42.3811 -83.0764 262° West 257 296 6,100 -100 Level Cleveland Center
Thu 07:12:44 AM 42.3758 -83.1183 260° West 268 308 6,000 -590 Descending Cleveland Center
Thu 07:13:15 AM 42.3728 -83.1633 265° West 198 228 5,500 -1,000 Descending Cleveland Center
Thu 07:13:44 AM 42.3597 -83.1908 237° Southwest 240 276 5,000 -1,377 Descending Cleveland Center
Thu 07:14:16 AM 42.3486 -83.2269 247° West 199 229 4,100 -1,688 Descending Cleveland Center

Login

Don't have an account? Register now (free) for customized features, flight alerts, and more!